sensor_id;sensor_type;location;lat;lon;timestamp;noise_LAeq;noise_LA_min;noise_LA_max;noise_LA01;noise_LA95
69609;Laerm;56815;52.320;4.858;2023-04-25T00:00:05;47.44;32.69;60.73;;
69609;Laerm;56815;52.320;4.858;2023-04-25T00:00:17;36.32;32.98;45.30;;
69609;Laerm;56815;52.320;4.858;2023-04-25T00:00:27;44.66;32.65;68.68;;
69609;Laerm;56815;52.320;4.858;2023-04-25T00:00:37;34.57;32.42;39.11;;
69609;Laerm;56815;52.320;4.858;2023-04-25T00:00:48;36.36;33.34;47.64;;
69609;Laerm;56815;52.320;4.858;2023-04-25T00:00:58;35.47;32.39;45.47;;
69609;Laerm;56815;52.320;4.858;2023-04-25T00:01:08;35.38;32.86;39.28;;
69609;Laerm;56815;52.320;4.858;2023-04-25T00:01:19;36.65;33.82;48.29;;
69609;Laerm;56815;52.320;4.858;2023-04-25T00:01:30;35.84;33.02;40.73;;
69609;Laerm;56815;52.320;4.858;2023-04-25T00:01:40;36.20;33.32;52.56;;
69609;Laerm;56815;52.320;4.858;2023-04-25T00:01:50;35.66;33.05;43.46;;
69609;Laerm;56815;52.320;4.858;2023-04-25T00:02:01;35.81;33.61;43.89;;
69609;Laerm;56815;52.320;4.858;2023-04-25T00:02:13;35.27;32.47;38.79;;
69609;Laerm;56815;52.320;4.858;2023-04-25T00:02:24;36.09;33.11;40.95;;
69609;Laerm;56815;52.320;4.858;2023-04-25T00:02:34;35.40;33.23;38.49;;
69609;Laerm;56815;52.320;4.858;2023-04-25T00:02:45;36.49;33.72;47.22;;
69609;Laerm;56815;52.320;4.858;2023-04-25T00:02:56;35.84;32.81;43.48;;
69609;Laerm;56815;52.320;4.858;2023-04-25T00:03:09;35.48;33.00;44.27;;
69609;Laerm;56815;52.320;4.858;2023-04-25T00:03:20;36.86;33.72;49.08;;
69609;Laerm;56815;52.320;4.858;2023-04-25T00:03:31;39.69;33.54;61.61;;
69609;Laerm;56815;52.320;4.858;2023-04-25T00:03:41;37.29;34.17;44.82;;
69609;Laerm;56815;52.320;4.858;2023-04-25T00:03:52;38.53;34.51;55.05;;
69609;Laerm;56815;52.320;4.858;2023-04-25T00:04:02;37.52;35.11;42.18;;
69609;Laerm;56815;52.320;4.858;2023-04-25T00:04:12;37.04;34.20;43.01;;
69609;Laerm;56815;52.320;4.858;2023-04-25T00:04:23;36.89;34.00;45.19;;
69609;Laerm;56815;52.320;4.858;2023-04-25T00:04:33;35.88;33.37;40.26;;
69609;Laerm;56815;52.320;4.858;2023-04-25T00:04:43;37.88;33.56;47.96;;
69609;Laerm;56815;52.320;4.858;2023-04-25T00:04:54;37.12;32.90;53.27;;
69609;Laerm;56815;52.320;4.858;2023-04-25T00:05:08;38.87;32.91;61.19;;
69609;Laerm;56815;52.320;4.858;2023-04-25T00:05:18;35.41;32.69;42.53;;
69609;Laerm;56815;52.320;4.858;2023-04-25T00:05:29;35.18;32.15;39.33;;
69609;Laerm;56815;52.320;4.858;2023-04-25T00:05:40;35.55;32.65;42.47;;
69609;Laerm;56815;52.320;4.858;2023-04-25T00:05:51;36.32;33.06;48.88;;
69609;Laerm;56815;52.320;4.858;2023-04-25T00:06:01;35.95;33.21;46.97;;
69609;Laerm;56815;52.320;4.858;2023-04-25T00:06:12;35.29;32.52;40.43;;
69609;Laerm;56815;52.320;4.858;2023-04-25T00:06:22;35.70;32.71;44.24;;
69609;Laerm;56815;52.320;4.858;2023-04-25T00:06:36;35.86;33.04;41.39;;
69609;Laerm;56815;52.320;4.858;2023-04-25T00:06:47;35.90;33.66;40.80;;
69609;Laerm;56815;52.320;4.858;2023-04-25T00:06:57;36.38;33.62;40.44;;
69609;Laerm;56815;52.320;4.858;2023-04-25T00:07:11;36.87;32.73;44.94;;
69609;Laerm;56815;52.320;4.858;2023-04-25T00:07:22;36.27;33.61;45.57;;
69609;Laerm;56815;52.320;4.858;2023-04-25T00:07:33;36.61;33.30;42.30;;
69609;Laerm;56815;52.320;4.858;2023-04-25T00:07:43;36.72;34.37;41.39;;
69609;Laerm;56815;52.320;4.858;2023-04-25T00:07:54;39.57;34.88;52.69;;
69609;Laerm;56815;52.320;4.858;2023-04-25T00:08:04;36.93;33.67;41.11;;
69609;Laerm;56815;52.320;4.858;2023-04-25T00:08:15;36.66;33.75;40.83;;
69609;Laerm;56815;52.320;4.858;2023-04-25T00:08:25;37.35;33.77;55.13;;
69609;Laerm;56815;52.320;4.858;2023-04-25T00:08:35;35.76;33.40;40.28;;
69609;Laerm;56815;52.320;4.858;2023-04-25T00:08:47;35.65;33.14;48.15;;
69609;Laerm;56815;52.320;4.858;2023-04-25T00:08:58;36.11;33.68;48.49;;
69609;Laerm;56815;52.320;4.858;2023-04-25T00:09:08;36.26;33.86;43.22;;
69609;Laerm;56815;52.320;4.858;2023-04-25T00:09:20;35.52;33.28;39.02;;
69609;Laerm;56815;52.320;4.858;2023-04-25T00:09:30;35.47;33.29;45.05;;
69609;Laerm;56815;52.320;4.858;2023-04-25T00:09:41;35.60;33.14;40.26;;
69609;Laerm;56815;52.320;4.858;2023-04-25T00:09:51;35.47;33.38;40.82;;
69609;Laerm;56815;52.320;4.858;2023-04-25T00:10:02;35.36;33.08;40.38;;
69609;Laerm;56815;52.320;4.858;2023-04-25T00:10:12;35.55;32.67;43.77;;
69609;Laerm;56815;52.320;4.858;2023-04-25T00:10:22;35.56;33.21;38.56;;
69609;Laerm;56815;52.320;4.858;2023-04-25T00:10:33;35.87;32.09;47.03;;
69609;Laerm;56815;52.320;4.858;2023-04-25T00:10:43;35.39;32.60;41.31;;
69609;Laerm;56815;52.320;4.858;2023-04-25T00:10:53;36.25;32.87;41.81;;
69609;Laerm;56815;52.320;4.858;2023-04-25T00:11:04;36.03;33.03;41.21;;
69609;Laerm;56815;52.320;4.858;2023-04-25T00:11:14;36.63;33.40;47.24;;
69609;Laerm;56815;52.320;4.858;2023-04-25T00:11:24;35.74;33.14;40.19;;
69609;Laerm;56815;52.320;4.858;2023-04-25T00:11:35;37.00;34.15;44.62;;
69609;Laerm;56815;52.320;4.858;2023-04-25T00:11:47;40.84;33.69;63.94;;
69609;Laerm;56815;52.320;4.858;2023-04-25T00:11:58;35.88;33.05;46.21;;
69609;Laerm;56815;52.320;4.858;2023-04-25T00:12:08;36.48;33.27;46.16;;
69609;Laerm;56815;52.320;4.858;2023-04-25T00:12:18;36.15;33.39;46.10;;
69609;Laerm;56815;52.320;4.858;2023-04-25T00:12:29;36.61;32.82;50.31;;
69609;Laerm;56815;52.320;4.858;2023-04-25T00:12:39;36.53;33.45;40.94;;
69609;Laerm;56815;52.320;4.858;2023-04-25T00:12:51;35.74;32.66;43.39;;
69609;Laerm;56815;52.320;4.858;2023-04-25T00:13:01;35.12;32.94;43.07;;
69609;Laerm;56815;52.320;4.858;2023-04-25T00:13:12;34.72;31.94;40.46;;
69609;Laerm;56815;52.320;4.858;2023-04-25T00:13:23;35.49;32.77;45.31;;
69609;Laerm;56815;52.320;4.858;2023-04-25T00:13:35;36.83;31.96;58.17;;
69609;Laerm;56815;52.320;4.858;2023-04-25T00:13:45;36.26;33.14;50.05;;
69609;Laerm;56815;52.320;4.858;2023-04-25T00:13:56;34.59;32.39;37.30;;
69609;Laerm;56815;52.320;4.858;2023-04-25T00:14:07;34.62;32.63;37.59;;
69609;Laerm;56815;52.320;4.858;2023-04-25T00:14:17;35.65;32.74;44.50;;
69609;Laerm;56815;52.320;4.858;2023-04-25T00:14:29;35.30;32.63;44.47;;
69609;Laerm;56815;52.320;4.858;2023-04-25T00:14:39;35.03;32.77;37.84;;
69609;Laerm;56815;52.320;4.858;2023-04-25T00:14:49;36.22;33.50;43.48;;
69609;Laerm;56815;52.320;4.858;2023-04-25T00:14:59;36.19;33.22;39.51;;
69609;Laerm;56815;52.320;4.858;2023-04-25T00:15:10;36.20;33.79;41.82;;
69609;Laerm;56815;52.320;4.858;2023-04-25T00:15:21;35.88;33.78;41.73;;
69609;Laerm;56815;52.320;4.858;2023-04-25T00:15:31;35.80;33.73;38.76;;
69609;Laerm;56815;52.320;4.858;2023-04-25T00:15:42;36.25;33.98;39.57;;
69609;Laerm;56815;52.320;4.858;2023-04-25T00:15:52;35.41;32.98;39.76;;
69609;Laerm;56815;52.320;4.858;2023-04-25T00:16:06;35.30;32.21;49.26;;
69609;Laerm;56815;52.320;4.858;2023-04-25T00:16:16;34.92;32.63;40.92;;
69609;Laerm;56815;52.320;4.858;2023-04-25T00:16:27;35.21;32.98;44.14;;
69609;Laerm;56815;52.320;4.858;2023-04-25T00:16:38;36.47;32.32;54.80;;
69609;Laerm;56815;52.320;4.858;2023-04-25T00:16:51;34.98;32.18;38.60;;
69609;Laerm;56815;52.320;4.858;2023-04-25T00:17:01;35.41;33.05;38.79;;
69609;Laerm;56815;52.320;4.858;2023-04-25T00:17:12;36.71;32.56;56.17;;
69609;Laerm;56815;52.320;4.858;2023-04-25T00:17:23;36.76;32.62;49.88;;
69609;Laerm;56815;52.320;4.858;2023-04-25T00:17:34;35.60;32.70;46.22;;
69609;Laerm;56815;52.320;4.858;2023-04-25T00:17:44;35.60;33.13;41.75;;
69609;Laerm;56815;52.320;4.858;2023-04-25T00:17:55;35.51;33.00;38.63;;
69609;Laerm;56815;52.320;4.858;2023-04-25T00:18:05;36.15;33.32;47.22;;
69609;Laerm;56815;52.320;4.858;2023-04-25T00:18:16;36.07;33.40;47.85;;
69609;Laerm;56815;52.320;4.858;2023-04-25T00:18:27;35.28;32.51;42.32;;
69609;Laerm;56815;52.320;4.858;2023-04-25T00:18:39;36.93;33.55;45.79;;
69609;Laerm;56815;52.320;4.858;2023-04-25T00:18:49;43.15;34.55;51.12;;
69609;Laerm;56815;52.320;4.858;2023-04-25T00:19:03;38.30;34.08;49.28;;
69609;Laerm;56815;52.320;4.858;2023-04-25T00:19:14;37.39;34.57;41.93;;
69609;Laerm;56815;52.320;4.858;2023-04-25T00:19:24;37.34;33.85;45.43;;
69609;Laerm;56815;52.320;4.858;2023-04-25T00:19:36;37.30;34.00;54.35;;
69609;Laerm;56815;52.320;4.858;2023-04-25T00:19:50;36.12;33.74;43.46;;
69609;Laerm;56815;52.320;4.858;2023-04-25T00:20:00;36.01;31.92;39.40;;
69609;Laerm;56815;52.320;4.858;2023-04-25T00:20:11;35.21;32.47;38.86;;
69609;Laerm;56815;52.320;4.858;2023-04-25T00:20:21;37.80;32.38;57.28;;
69609;Laerm;56815;52.320;4.858;2023-04-25T00:20:33;34.72;32.21;39.20;;
69609;Laerm;56815;52.320;4.858;2023-04-25T00:20:43;34.91;32.63;39.83;;
69609;Laerm;56815;52.320;4.858;2023-04-25T00:20:56;35.53;33.03;43.65;;
69609;Laerm;56815;52.320;4.858;2023-04-25T00:21:06;35.88;32.49;53.93;;
69609;Laerm;56815;52.320;4.858;2023-04-25T00:21:18;34.44;32.26;44.39;;
69609;Laerm;56815;52.320;4.858;2023-04-25T00:21:28;35.28;32.37;45.77;;
69609;Laerm;56815;52.320;4.858;2023-04-25T00:21:38;34.56;31.83;38.86;;
69609;Laerm;56815;52.320;4.858;2023-04-25T00:21:50;35.82;32.68;47.60;;
69609;Laerm;56815;52.320;4.858;2023-04-25T00:22:00;35.80;33.39;41.09;;
69609;Laerm;56815;52.320;4.858;2023-04-25T00:22:11;34.92;32.73;41.41;;
69609;Laerm;56815;52.320;4.858;2023-04-25T00:22:21;37.11;32.78;56.89;;
69609;Laerm;56815;52.320;4.858;2023-04-25T00:22:32;36.70;33.19;53.74;;
69609;Laerm;56815;52.320;4.858;2023-04-25T00:22:44;34.83;32.49;39.28;;
69609;Laerm;56815;52.320;4.858;2023-04-25T00:22:54;35.66;33.14;44.81;;
69609;Laerm;56815;52.320;4.858;2023-04-25T00:23:05;35.05;32.07;45.86;;
69609;Laerm;56815;52.320;4.858;2023-04-25T00:23:16;34.90;31.63;42.44;;
69609;Laerm;56815;52.320;4.858;2023-04-25T00:23:30;35.80;32.58;41.09;;
69609;Laerm;56815;52.320;4.858;2023-04-25T00:23:40;36.14;33.10;40.94;;
69609;Laerm;56815;52.320;4.858;2023-04-25T00:23:52;36.52;33.50;42.16;;
69609;Laerm;56815;52.320;4.858;2023-04-25T00:24:02;42.16;35.58;51.61;;
69609;Laerm;56815;52.320;4.858;2023-04-25T00:24:13;40.99;35.95;48.08;;
69609;Laerm;56815;52.320;4.858;2023-04-25T00:24:23;40.86;35.92;48.45;;
69609;Laerm;56815;52.320;4.858;2023-04-25T00:24:33;37.60;34.71;41.70;;
69609;Laerm;56815;52.320;4.858;2023-04-25T00:24:44;36.97;33.73;42.28;;
69609;Laerm;56815;52.320;4.858;2023-04-25T00:24:54;36.64;32.93;42.31;;
69609;Laerm;56815;52.320;4.858;2023-04-25T00:25:07;35.93;33.69;40.81;;
69609;Laerm;56815;52.320;4.858;2023-04-25T00:25:17;36.02;33.92;41.98;;
69609;Laerm;56815;52.320;4.858;2023-04-25T00:25:27;35.34;32.79;41.66;;
69609;Laerm;56815;52.320;4.858;2023-04-25T00:25:38;35.60;33.28;44.23;;
69609;Laerm;56815;52.320;4.858;2023-04-25T00:25:49;35.14;33.18;37.82;;
69609;Laerm;56815;52.320;4.858;2023-04-25T00:25:59;34.82;32.54;40.12;;
69609;Laerm;56815;52.320;4.858;2023-04-25T00:26:10;35.29;32.96;38.24;;
69609;Laerm;56815;52.320;4.858;2023-04-25T00:26:20;38.11;33.25;57.38;;
69609;Laerm;56815;52.320;4.858;2023-04-25T00:26:31;36.78;33.72;44.03;;
69609;Laerm;56815;52.320;4.858;2023-04-25T00:26:41;35.67;32.87;40.21;;
69609;Laerm;56815;52.320;4.858;2023-04-25T00:26:51;34.34;31.74;42.26;;
69609;Laerm;56815;52.320;4.858;2023-04-25T00:27:01;34.68;32.35;37.61;;
69609;Laerm;56815;52.320;4.858;2023-04-25T00:27:12;34.63;32.21;40.96;;
69609;Laerm;56815;52.320;4.858;2023-04-25T00:27:22;35.11;32.27;44.32;;
69609;Laerm;56815;52.320;4.858;2023-04-25T00:27:32;34.78;32.50;44.60;;
69609;Laerm;56815;52.320;4.858;2023-04-25T00:27:43;34.43;32.24;37.45;;
69609;Laerm;56815;52.320;4.858;2023-04-25T00:27:53;34.91;32.75;43.30;;
69609;Laerm;56815;52.320;4.858;2023-04-25T00:28:03;35.23;32.77;40.07;;
69609;Laerm;56815;52.320;4.858;2023-04-25T00:28:14;35.16;32.53;46.39;;
69609;Laerm;56815;52.320;4.858;2023-04-25T00:28:24;35.55;32.70;43.88;;
69609;Laerm;56815;52.320;4.858;2023-04-25T00:28:34;35.25;32.47;44.21;;
69609;Laerm;56815;52.320;4.858;2023-04-25T00:28:44;35.98;32.90;47.95;;
69609;Laerm;56815;52.320;4.858;2023-04-25T00:28:55;35.24;32.78;40.54;;
69609;Laerm;56815;52.320;4.858;2023-04-25T00:29:05;36.92;33.77;46.05;;
69609;Laerm;56815;52.320;4.858;2023-04-25T00:29:16;35.84;33.03;40.70;;
69609;Laerm;56815;52.320;4.858;2023-04-25T00:29:26;39.41;31.99;61.31;;
69609;Laerm;56815;52.320;4.858;2023-04-25T00:29:36;35.32;32.81;38.46;;
69609;Laerm;56815;52.320;4.858;2023-04-25T00:29:46;35.56;33.07;39.00;;
69609;Laerm;56815;52.320;4.858;2023-04-25T00:29:57;35.14;32.26;40.68;;
69609;Laerm;56815;52.320;4.858;2023-04-25T00:30:07;43.49;33.29;58.23;;
69609;Laerm;56815;52.320;4.858;2023-04-25T00:30:18;35.43;33.14;39.39;;
69609;Laerm;56815;52.320;4.858;2023-04-25T00:30:28;35.37;32.95;38.25;;
69609;Laerm;56815;52.320;4.858;2023-04-25T00:30:39;35.66;33.07;41.83;;
69609;Laerm;56815;52.320;4.858;2023-04-25T00:30:49;35.84;33.57;49.91;;
69609;Laerm;56815;52.320;4.858;2023-04-25T00:31:00;34.47;31.78;41.05;;
69609;Laerm;56815;52.320;4.858;2023-04-25T00:31:10;34.29;32.05;38.68;;
69609;Laerm;56815;52.320;4.858;2023-04-25T00:31:20;35.77;32.77;46.35;;
69609;Laerm;56815;52.320;4.858;2023-04-25T00:31:31;35.79;32.90;41.56;;
69609;Laerm;56815;52.320;4.858;2023-04-25T00:31:41;34.97;32.55;37.91;;
69609;Laerm;56815;52.320;4.858;2023-04-25T00:31:51;34.57;32.39;39.36;;
69609;Laerm;56815;52.320;4.858;2023-04-25T00:32:01;34.33;32.22;38.28;;
69609;Laerm;56815;52.320;4.858;2023-04-25T00:32:12;35.11;31.51;52.40;;
69609;Laerm;56815;52.320;4.858;2023-04-25T00:32:22;34.72;32.28;40.66;;
69609;Laerm;56815;52.320;4.858;2023-04-25T00:32:32;34.55;32.20;38.67;;
69609;Laerm;56815;52.320;4.858;2023-04-25T00:32:43;34.60;31.78;39.80;;
69609;Laerm;56815;52.320;4.858;2023-04-25T00:32:53;34.65;32.29;38.55;;
69609;Laerm;56815;52.320;4.858;2023-04-25T00:33:03;34.81;32.26;43.14;;
69609;Laerm;56815;52.320;4.858;2023-04-25T00:33:14;35.24;31.92;44.95;;
69609;Laerm;56815;52.320;4.858;2023-04-25T00:33:24;34.52;31.99;40.42;;
69609;Laerm;56815;52.320;4.858;2023-04-25T00:33:34;34.36;31.86;36.99;;
69609;Laerm;56815;52.320;4.858;2023-04-25T00:33:45;35.72;31.47;41.09;;
69609;Laerm;56815;52.320;4.858;2023-04-25T00:33:55;36.46;33.01;44.19;;
69609;Laerm;56815;52.320;4.858;2023-04-25T00:34:06;35.35;33.02;40.96;;
69609;Laerm;56815;52.320;4.858;2023-04-25T00:34:17;34.21;32.05;37.12;;
69609;Laerm;56815;52.320;4.858;2023-04-25T00:34:27;33.72;30.97;40.13;;
69609;Laerm;56815;52.320;4.858;2023-04-25T00:34:37;34.17;31.17;39.37;;
69609;Laerm;56815;52.320;4.858;2023-04-25T00:34:47;34.21;31.98;39.16;;
69609;Laerm;56815;52.320;4.858;2023-04-25T00:34:58;34.60;31.90;47.43;;
69609;Laerm;56815;52.320;4.858;2023-04-25T00:35:08;34.62;32.50;37.79;;
69609;Laerm;56815;52.320;4.858;2023-04-25T00:35:19;35.34;32.08;43.76;;
69609;Laerm;56815;52.320;4.858;2023-04-25T00:35:29;34.60;31.88;39.80;;
69609;Laerm;56815;52.320;4.858;2023-04-25T00:35:40;34.81;32.48;42.25;;
69609;Laerm;56815;52.320;4.858;2023-04-25T00:35:50;34.27;31.95;37.75;;
69609;Laerm;56815;52.320;4.858;2023-04-25T00:36:00;34.51;31.76;45.50;;
69609;Laerm;56815;52.320;4.858;2023-04-25T00:36:11;34.82;32.23;37.39;;
69609;Laerm;56815;52.320;4.858;2023-04-25T00:36:21;34.42;32.28;38.12;;
69609;Laerm;56815;52.320;4.858;2023-04-25T00:36:31;33.91;31.79;42.10;;
69609;Laerm;56815;52.320;4.858;2023-04-25T00:36:42;34.75;32.07;40.26;;
69609;Laerm;56815;52.320;4.858;2023-04-25T00:36:52;35.24;32.82;41.78;;
69609;Laerm;56815;52.320;4.858;2023-04-25T00:37:02;35.07;32.02;41.96;;
69609;Laerm;56815;52.320;4.858;2023-04-25T00:37:13;34.45;31.82;42.18;;
69609;Laerm;56815;52.320;4.858;2023-04-25T00:37:23;34.35;31.71;44.81;;
69609;Laerm;56815;52.320;4.858;2023-04-25T00:37:33;34.80;32.14;38.63;;
69609;Laerm;56815;52.320;4.858;2023-04-25T00:37:43;34.04;31.95;36.92;;
69609;Laerm;56815;52.320;4.858;2023-04-25T00:37:54;34.37;31.27;38.81;;
69609;Laerm;56815;52.320;4.858;2023-04-25T00:38:05;34.40;32.01;39.35;;
69609;Laerm;56815;52.320;4.858;2023-04-25T00:38:15;34.09;31.30;37.90;;
69609;Laerm;56815;52.320;4.858;2023-04-25T00:38:25;35.09;32.23;44.88;;
69609;Laerm;56815;52.320;4.858;2023-04-25T00:38:36;34.65;32.29;38.63;;
69609;Laerm;56815;52.320;4.858;2023-04-25T00:38:47;35.35;31.47;44.71;;
69609;Laerm;56815;52.320;4.858;2023-04-25T00:38:57;34.38;32.01;37.69;;
69609;Laerm;56815;52.320;4.858;2023-04-25T00:39:07;33.89;31.29;40.82;;
69609;Laerm;56815;52.320;4.858;2023-04-25T00:39:18;34.63;32.33;39.40;;
69609;Laerm;56815;52.320;4.858;2023-04-25T00:39:28;35.44;32.57;49.37;;
69609;Laerm;56815;52.320;4.858;2023-04-25T00:39:38;35.62;31.98;39.14;;
69609;Laerm;56815;52.320;4.858;2023-04-25T00:39:49;37.28;33.16;56.92;;
69609;Laerm;56815;52.320;4.858;2023-04-25T00:39:59;34.67;32.04;37.52;;
69609;Laerm;56815;52.320;4.858;2023-04-25T00:40:09;35.34;32.92;38.41;;
69609;Laerm;56815;52.320;4.858;2023-04-25T00:40:20;36.02;31.82;46.14;;
69609;Laerm;56815;52.320;4.858;2023-04-25T00:40:30;35.06;32.02;39.94;;
69609;Laerm;56815;52.320;4.858;2023-04-25T00:40:41;35.02;31.16;40.86;;
69609;Laerm;56815;52.320;4.858;2023-04-25T00:40:53;34.23;31.41;46.36;;
69609;Laerm;56815;52.320;4.858;2023-04-25T00:41:06;34.42;31.86;39.98;;
69609;Laerm;56815;52.320;4.858;2023-04-25T00:41:16;34.31;31.64;39.13;;
69609;Laerm;56815;52.320;4.858;2023-04-25T00:41:26;34.64;31.75;44.56;;
69609;Laerm;56815;52.320;4.858;2023-04-25T00:41:37;35.38;33.04;38.98;;
69609;Laerm;56815;52.320;4.858;2023-04-25T00:41:48;34.78;32.32;37.93;;
69609;Laerm;56815;52.320;4.858;2023-04-25T00:41:58;34.38;31.90;42.16;;
69609;Laerm;56815;52.320;4.858;2023-04-25T00:42:09;34.53;31.11;51.82;;
69609;Laerm;56815;52.320;4.858;2023-04-25T00:42:19;33.91;31.11;46.62;;
69609;Laerm;56815;52.320;4.858;2023-04-25T00:42:30;33.09;30.73;38.79;;
69609;Laerm;56815;52.320;4.858;2023-04-25T00:42:41;32.89;30.99;38.80;;
69609;Laerm;56815;52.320;4.858;2023-04-25T00:42:52;33.05;30.58;37.09;;
69609;Laerm;56815;52.320;4.858;2023-04-25T00:43:04;33.70;31.38;39.14;;
69609;Laerm;56815;52.320;4.858;2023-04-25T00:43:14;33.62;31.40;39.79;;
69609;Laerm;56815;52.320;4.858;2023-04-25T00:43:26;33.80;31.43;37.22;;
69609;Laerm;56815;52.320;4.858;2023-04-25T00:43:36;34.78;32.14;39.29;;
69609;Laerm;56815;52.320;4.858;2023-04-25T00:43:48;34.50;32.39;41.85;;
69609;Laerm;56815;52.320;4.858;2023-04-25T00:43:58;34.17;31.68;39.51;;
69609;Laerm;56815;52.320;4.858;2023-04-25T00:44:09;34.54;31.97;44.12;;
69609;Laerm;56815;52.320;4.858;2023-04-25T00:44:21;33.20;30.63;36.45;;
69609;Laerm;56815;52.320;4.858;2023-04-25T00:44:32;33.84;31.07;46.09;;
69609;Laerm;56815;52.320;4.858;2023-04-25T00:44:42;33.53;31.16;36.54;;
69609;Laerm;56815;52.320;4.858;2023-04-25T00:44:53;33.71;30.49;42.64;;
69609;Laerm;56815;52.320;4.858;2023-04-25T00:45:04;33.80;30.71;43.54;;
69609;Laerm;56815;52.320;4.858;2023-04-25T00:45:15;34.17;31.20;42.64;;
69609;Laerm;56815;52.320;4.858;2023-04-25T00:45:28;33.84;30.94;43.83;;
69609;Laerm;56815;52.320;4.858;2023-04-25T00:45:42;33.39;30.93;42.20;;
69609;Laerm;56815;52.320;4.858;2023-04-25T00:45:53;32.83;30.93;37.15;;
69609;Laerm;56815;52.320;4.858;2023-04-25T00:46:03;32.77;30.79;37.12;;
69609;Laerm;56815;52.320;4.858;2023-04-25T00:46:13;33.19;30.57;37.75;;
69609;Laerm;56815;52.320;4.858;2023-04-25T00:46:24;34.14;31.28;38.55;;
69609;Laerm;56815;52.320;4.858;2023-04-25T00:46:34;34.47;32.17;37.91;;
69609;Laerm;56815;52.320;4.858;2023-04-25T00:46:46;33.77;31.52;40.20;;
69609;Laerm;56815;52.320;4.858;2023-04-25T00:46:57;34.27;31.14;44.54;;
69609;Laerm;56815;52.320;4.858;2023-04-25T00:47:07;33.94;30.89;41.12;;
69609;Laerm;56815;52.320;4.858;2023-04-25T00:47:18;33.50;30.79;40.84;;
69609;Laerm;56815;52.320;4.858;2023-04-25T00:47:28;33.64;30.96;37.21;;
69609;Laerm;56815;52.320;4.858;2023-04-25T00:47:38;34.47;31.52;47.91;;
69609;Laerm;56815;52.320;4.858;2023-04-25T00:47:53;34.54;31.00;46.56;;
69609;Laerm;56815;52.320;4.858;2023-04-25T00:48:04;33.67;31.15;38.01;;
69609;Laerm;56815;52.320;4.858;2023-04-25T00:48:14;33.39;30.94;36.83;;
69609;Laerm;56815;52.320;4.858;2023-04-25T00:48:24;33.99;31.30;40.24;;
69609;Laerm;56815;52.320;4.858;2023-04-25T00:48:35;33.79;30.85;43.32;;
69609;Laerm;56815;52.320;4.858;2023-04-25T00:48:45;32.73;30.65;36.17;;
69609;Laerm;56815;52.320;4.858;2023-04-25T00:48:55;33.73;31.16;44.27;;
69609;Laerm;56815;52.320;4.858;2023-04-25T00:49:06;33.92;31.46;40.88;;
69609;Laerm;56815;52.320;4.858;2023-04-25T00:49:16;32.69;30.90;35.73;;
69609;Laerm;56815;52.320;4.858;2023-04-25T00:49:27;33.01;30.75;40.14;;
69609;Laerm;56815;52.320;4.858;2023-04-25T00:49:37;33.64;31.02;43.07;;
69609;Laerm;56815;52.320;4.858;2023-04-25T00:49:47;32.98;30.84;36.56;;
69609;Laerm;56815;52.320;4.858;2023-04-25T00:49:57;33.83;30.90;46.56;;
69609;Laerm;56815;52.320;4.858;2023-04-25T00:50:08;32.95;30.98;37.16;;
69609;Laerm;56815;52.320;4.858;2023-04-25T00:50:19;33.96;31.10;38.27;;
69609;Laerm;56815;52.320;4.858;2023-04-25T00:50:29;32.94;30.68;43.70;;
69609;Laerm;56815;52.320;4.858;2023-04-25T00:50:40;33.25;30.92;38.04;;
69609;Laerm;56815;52.320;4.858;2023-04-25T00:50:53;36.70;31.43;52.18;;
69609;Laerm;56815;52.320;4.858;2023-04-25T00:51:04;33.39;31.32;38.05;;
69609;Laerm;56815;52.320;4.858;2023-04-25T00:51:16;33.84;31.85;39.28;;
69609;Laerm;56815;52.320;4.858;2023-04-25T00:51:26;33.71;31.48;37.97;;
69609;Laerm;56815;52.320;4.858;2023-04-25T00:51:37;33.46;31.41;40.82;;
69609;Laerm;56815;52.320;4.858;2023-04-25T00:51:47;33.73;31.56;41.03;;
69609;Laerm;56815;52.320;4.858;2023-04-25T00:51:58;33.62;31.53;37.56;;
69609;Laerm;56815;52.320;4.858;2023-04-25T00:52:08;33.99;31.23;44.24;;
69609;Laerm;56815;52.320;4.858;2023-04-25T00:52:19;33.46;30.45;39.52;;
69609;Laerm;56815;52.320;4.858;2023-04-25T00:52:30;34.27;31.46;44.28;;
69609;Laerm;56815;52.320;4.858;2023-04-25T00:52:41;33.68;31.27;37.38;;
69609;Laerm;56815;52.320;4.858;2023-04-25T00:52:52;33.44;31.01;38.83;;
69609;Laerm;56815;52.320;4.858;2023-04-25T00:53:03;33.39;31.46;37.70;;
69609;Laerm;56815;52.320;4.858;2023-04-25T00:53:14;33.60;31.52;38.12;;
69609;Laerm;56815;52.320;4.858;2023-04-25T00:53:25;33.71;31.27;40.19;;
69609;Laerm;56815;52.320;4.858;2023-04-25T00:53:35;34.16;31.26;40.24;;
69609;Laerm;56815;52.320;4.858;2023-04-25T00:53:46;34.34;31.60;43.87;;
69609;Laerm;56815;52.320;4.858;2023-04-25T00:53:57;33.81;31.36;37.43;;
69609;Laerm;56815;52.320;4.858;2023-04-25T00:54:07;33.84;31.36;39.81;;
69609;Laerm;56815;52.320;4.858;2023-04-25T00:54:18;33.66;31.34;38.06;;
69609;Laerm;56815;52.320;4.858;2023-04-25T00:54:28;32.70;30.77;35.27;;
69609;Laerm;56815;52.320;4.858;2023-04-25T00:54:40;35.11;31.80;40.02;;
69609;Laerm;56815;52.320;4.858;2023-04-25T00:54:50;34.39;31.75;40.15;;
69609;Laerm;56815;52.320;4.858;2023-04-25T00:55:01;34.00;31.54;37.78;;
69609;Laerm;56815;52.320;4.858;2023-04-25T00:55:11;34.62;32.13;40.06;;
69609;Laerm;56815;52.320;4.858;2023-04-25T00:55:22;33.89;31.73;38.68;;
69609;Laerm;56815;52.320;4.858;2023-04-25T00:55:32;33.54;31.20;37.27;;
69609;Laerm;56815;52.320;4.858;2023-04-25T00:55:44;33.66;31.57;39.41;;
69609;Laerm;56815;52.320;4.858;2023-04-25T00:55:55;34.04;31.46;41.66;;
69609;Laerm;56815;52.320;4.858;2023-04-25T00:56:05;33.47;31.03;37.29;;
69609;Laerm;56815;52.320;4.858;2023-04-25T00:56:16;33.46;30.92;41.97;;
69609;Laerm;56815;52.320;4.858;2023-04-25T00:56:26;33.57;31.20;37.99;;
69609;Laerm;56815;52.320;4.858;2023-04-25T00:56:36;33.39;31.18;38.57;;
69609;Laerm;56815;52.320;4.858;2023-04-25T00:56:46;34.85;31.68;47.56;;
69609;Laerm;56815;52.320;4.858;2023-04-25T00:56:57;33.79;31.47;40.76;;
69609;Laerm;56815;52.320;4.858;2023-04-25T00:57:07;34.36;30.74;45.93;;
69609;Laerm;56815;52.320;4.858;2023-04-25T00:57:17;33.72;31.41;41.89;;
69609;Laerm;56815;52.320;4.858;2023-04-25T00:57:28;33.83;31.29;39.33;;
69609;Laerm;56815;52.320;4.858;2023-04-25T00:57:38;36.34;31.76;54.37;;
69609;Laerm;56815;52.320;4.858;2023-04-25T00:57:49;36.02;32.35;55.05;;
69609;Laerm;56815;52.320;4.858;2023-04-25T00:57:59;35.86;32.20;42.15;;
69609;Laerm;56815;52.320;4.858;2023-04-25T00:58:10;36.21;32.88;47.97;;
69609;Laerm;56815;52.320;4.858;2023-04-25T00:58:20;36.45;33.42;41.56;;
69609;Laerm;56815;52.320;4.858;2023-04-25T00:58:31;39.30;32.93;54.01;;
69609;Laerm;56815;52.320;4.858;2023-04-25T00:58:42;38.78;35.14;44.15;;
69609;Laerm;56815;52.320;4.858;2023-04-25T00:58:53;38.97;34.94;44.24;;
69609;Laerm;56815;52.320;4.858;2023-04-25T00:59:06;39.72;35.97;49.20;;
69609;Laerm;56815;52.320;4.858;2023-04-25T00:59:17;38.22;33.46;43.43;;
69609;Laerm;56815;52.320;4.858;2023-04-25T00:59:28;37.93;32.78;42.86;;
69609;Laerm;56815;52.320;4.858;2023-04-25T00:59:39;37.20;33.09;41.96;;
69609;Laerm;56815;52.320;4.858;2023-04-25T00:59:53;35.60;32.54;40.15;;
69609;Laerm;56815;52.320;4.858;2023-04-25T01:00:05;46.64;33.31;61.40;;